createdAt,value
2018-04-28T00:00:52.882Z,6.40
2018-04-28T00:01:52.879Z,6.50
2018-04-28T00:02:52.873Z,6.60
2018-04-28T00:03:52.870Z,6.80
2018-04-28T00:04:52.868Z,6.70
2018-04-28T00:05:52.861Z,7.10
2018-04-28T00:06:52.864Z,6.60
2018-04-28T00:07:52.882Z,6.90
2018-04-28T00:08:52.854Z,6.70
2018-04-28T00:09:52.846Z,6.70
2018-04-28T00:10:52.847Z,6.50
2018-04-28T00:11:52.838Z,6.40
2018-04-28T00:12:52.834Z,7.00
2018-04-28T00:13:52.831Z,6.70
2018-04-28T00:14:52.825Z,6.60
2018-04-28T00:15:52.821Z,6.60
2018-04-28T00:16:52.819Z,6.80
2018-04-28T00:17:52.813Z,6.80
2018-04-28T00:18:52.809Z,7.00
2018-04-28T00:19:52.806Z,6.70
2018-04-28T00:20:52.802Z,6.60
2018-04-28T00:21:52.804Z,6.60
2018-04-28T00:22:52.794Z,6.40
2018-04-28T00:23:52.788Z,6.80
2018-04-28T00:24:52.785Z,6.50
2018-04-28T00:25:52.783Z,7.00
2018-04-28T00:26:52.778Z,6.90
2018-04-28T00:27:52.777Z,6.80
2018-04-28T00:28:52.775Z,7.00
2018-04-28T00:29:52.771Z,6.90
2018-04-28T00:30:52.762Z,7.00
2018-04-28T00:31:52.761Z,6.50
2018-04-28T00:32:52.750Z,7.20
2018-04-28T00:33:52.747Z,6.80
2018-04-28T00:34:52.742Z,6.90
2018-04-28T00:35:52.743Z,6.90
2018-04-28T00:36:52.741Z,7.20
2018-04-28T00:37:52.733Z,7.10
2018-04-28T00:38:52.729Z,6.80
2018-04-28T00:39:52.725Z,7.30
2018-04-28T00:40:52.721Z,7.10
2018-04-28T00:41:52.715Z,6.60
2018-04-28T00:42:52.713Z,7.10
2018-04-28T00:43:52.704Z,7.10
2018-04-28T00:44:52.703Z,6.70
2018-04-28T00:45:52.702Z,6.80
2018-04-28T00:46:52.694Z,7.30
2018-04-28T00:47:52.690Z,6.80
2018-04-28T00:48:52.689Z,7.30
2018-04-28T00:49:52.683Z,7.10
2018-04-28T00:50:52.680Z,7.00
2018-04-28T00:51:52.677Z,7.30
2018-04-28T00:52:52.669Z,7.80
2018-04-28T00:53:52.666Z,7.80
2018-04-28T00:54:52.660Z,7.10
2018-04-28T00:55:52.662Z,7.40
2018-04-28T00:56:52.654Z,7.60
2018-04-28T00:57:52.649Z,7.50
2018-04-28T00:58:52.648Z,7.40
2018-04-28T00:59:52.644Z,7.50
2018-04-28T01:00:52.640Z,7.30
2018-04-28T01:01:52.629Z,7.70
2018-04-28T01:02:52.628Z,7.70
2018-04-28T01:03:52.625Z,7.50
2018-04-28T01:04:52.620Z,8.00
2018-04-28T01:05:52.620Z,8.00
2018-04-28T01:06:52.612Z,8.10
2018-04-28T01:07:52.613Z,8.60
2018-04-28T01:08:52.603Z,8.50
2018-04-28T01:09:52.601Z,7.60
2018-04-28T01:10:52.602Z,8.10
2018-04-28T01:11:52.592Z,7.30
2018-04-28T01:12:52.589Z,7.40
2018-04-28T01:13:52.584Z,8.20
2018-04-28T01:14:52.579Z,8.00
2018-04-28T01:15:52.575Z,7.90
2018-04-28T01:16:52.571Z,8.00
2018-04-28T01:17:52.566Z,8.50
2018-04-28T01:18:52.562Z,7.90
2018-04-28T01:19:52.557Z,8.20
2018-04-28T01:20:52.553Z,7.80
2018-04-28T01:21:52.550Z,8.50
2018-04-28T01:22:52.547Z,8.60
2018-04-28T01:23:52.542Z,8.90
2018-04-28T01:24:52.540Z,8.60
2018-04-28T01:25:52.532Z,8.40
2018-04-28T01:26:52.530Z,9.20
2018-04-28T01:27:52.522Z,8.10
2018-04-28T01:28:52.519Z,8.40
2018-04-28T01:29:52.594Z,8.80
2018-04-28T01:30:52.511Z,8.70
2018-04-28T01:31:52.507Z,8.60
2018-04-28T01:32:52.504Z,8.30
2018-04-28T01:33:52.501Z,8.20
2018-04-28T01:34:52.494Z,8.50
2018-04-28T01:35:52.490Z,8.60
2018-04-28T01:36:52.484Z,8.60
2018-04-28T01:37:52.481Z,8.10
2018-04-28T01:38:52.478Z,8.50
2018-04-28T01:39:52.473Z,8.40
2018-04-28T01:40:52.467Z,8.40
2018-04-28T01:41:52.469Z,8.20
2018-04-28T01:42:52.459Z,8.10
2018-04-28T01:43:52.453Z,8.20
2018-04-28T01:44:52.452Z,8.10
2018-04-28T01:45:52.445Z,8.20
2018-04-28T01:46:52.442Z,8.60
2018-04-28T01:47:52.444Z,8.50
2018-04-28T01:48:52.433Z,8.30
2018-04-28T01:49:52.427Z,8.80
2018-04-28T01:50:52.421Z,8.60
2018-04-28T01:51:52.419Z,8.30
2018-04-28T01:52:52.415Z,8.40
2018-04-28T01:53:52.411Z,8.30
2018-04-28T01:54:52.410Z,8.80
2018-04-28T01:55:52.401Z,9.10
2018-04-28T01:56:52.399Z,8.90
2018-04-28T01:57:52.391Z,8.70
2018-04-28T01:58:52.387Z,8.90
2018-04-28T01:59:52.381Z,8.90
2018-04-28T02:00:52.377Z,8.90
2018-04-28T02:01:52.373Z,9.40
2018-04-28T02:02:52.368Z,7.80
2018-04-28T02:03:52.366Z,8.80
2018-04-28T02:04:52.368Z,8.50
2018-04-28T02:05:52.355Z,9.00
2018-04-28T02:06:52.355Z,9.10
2018-04-28T02:07:52.347Z,8.90
2018-04-28T02:08:52.343Z,8.70
2018-04-28T02:09:52.339Z,9.80
2018-04-28T02:10:52.339Z,9.10
2018-04-28T02:11:52.327Z,9.10
2018-04-28T02:12:52.323Z,8.60
2018-04-28T02:13:52.320Z,8.90
2018-04-28T02:14:52.315Z,9.00
2018-04-28T02:15:52.312Z,9.70
2018-04-28T02:16:52.305Z,9.10
2018-04-28T02:17:52.301Z,9.50
2018-04-28T02:18:52.294Z,9.00
2018-04-28T02:19:52.289Z,8.90
2018-04-28T02:20:52.293Z,9.60
2018-04-28T02:21:52.282Z,9.20
2018-04-28T02:22:52.279Z,9.20
2018-04-28T02:23:52.273Z,9.50
2018-04-28T02:24:52.268Z,9.10
2018-04-28T02:25:52.262Z,9.20
2018-04-28T02:26:52.259Z,8.90
2018-04-28T02:27:52.253Z,9.40
2018-04-28T02:28:52.253Z,9.70
2018-04-28T02:29:52.251Z,10.20
2018-04-28T02:30:52.238Z,9.20
2018-04-28T02:31:52.236Z,9.50
2018-04-28T02:32:52.232Z,9.30
2018-04-28T02:33:52.296Z,9.90
2018-04-28T02:34:52.220Z,9.70
2018-04-28T02:35:52.211Z,9.60
2018-04-28T02:36:52.214Z,9.60
2018-04-28T02:37:52.205Z,9.70
2018-04-28T02:38:52.203Z,9.30
2018-04-28T02:39:52.198Z,9.30
2018-04-28T02:40:52.192Z,9.20
2018-04-28T02:41:52.189Z,9.30
2018-04-28T02:42:52.183Z,9.40
2018-04-28T02:43:52.177Z,9.90
2018-04-28T02:44:52.168Z,9.80
2018-04-28T02:45:52.168Z,9.50
2018-04-28T02:46:52.162Z,10.20
2018-04-28T02:47:52.158Z,9.90
2018-04-28T02:48:52.154Z,9.70
2018-04-28T02:49:52.149Z,10.00
2018-04-28T02:50:52.145Z,10.20
2018-04-28T02:51:52.143Z,9.80
2018-04-28T02:52:52.184Z,10.30
2018-04-28T02:53:52.129Z,10.50
2018-04-28T02:54:52.123Z,9.90
2018-04-28T02:55:52.119Z,10.40
2018-04-28T02:56:52.114Z,10.50
2018-04-28T02:57:52.116Z,10.20
2018-04-28T02:58:52.105Z,11.20
2018-04-28T02:59:52.104Z,10.20
2018-04-28T03:00:52.096Z,10.60
2018-04-28T03:01:52.090Z,10.60
2018-04-28T03:02:52.087Z,10.70
2018-04-28T03:03:52.085Z,10.80
2018-04-28T03:04:52.076Z,11.30
2018-04-28T03:05:52.071Z,11.50
2018-04-28T03:06:52.069Z,11.40
2018-04-28T03:07:52.064Z,11.00
2018-04-28T03:08:52.056Z,11.10
2018-04-28T03:09:52.052Z,11.70
2018-04-28T03:10:52.046Z,12.10
2018-04-28T03:11:52.041Z,10.80
2018-04-28T03:12:52.035Z,11.30
2018-04-28T03:13:52.034Z,11.50
2018-04-28T03:14:52.026Z,11.00
2018-04-28T03:15:52.023Z,10.50
2018-04-28T03:16:52.018Z,10.70
2018-04-28T03:17:52.014Z,11.40
2018-04-28T03:18:52.007Z,11.50
2018-04-28T03:19:52.002Z,11.10
2018-04-28T03:20:51.996Z,11.50
2018-04-28T03:21:51.992Z,11.50
2018-04-28T03:22:51.987Z,11.30
2018-04-28T03:23:51.982Z,11.40
2018-04-28T03:24:51.976Z,11.20
2018-04-28T03:25:51.975Z,12.00
2018-04-28T03:26:51.967Z,11.50
2018-04-28T03:27:51.961Z,10.90
2018-04-28T03:28:51.957Z,11.20
2018-04-28T03:29:51.955Z,11.90
2018-04-28T03:30:51.948Z,11.70
2018-04-28T03:31:51.943Z,12.00
2018-04-28T03:32:51.938Z,11.80
2018-04-28T03:33:51.931Z,11.40
2018-04-28T03:34:51.925Z,11.70
2018-04-28T03:35:51.920Z,12.10
2018-04-28T03:36:51.914Z,10.80
2018-04-28T03:37:51.909Z,11.60
2018-04-28T03:38:51.907Z,11.10
2018-04-28T03:39:51.900Z,11.60
2018-04-28T03:40:51.897Z,11.00
2018-04-28T03:41:51.891Z,11.50
2018-04-28T03:42:51.889Z,11.90
2018-04-28T03:43:51.881Z,11.90
2018-04-28T03:44:51.876Z,11.30
2018-04-28T03:45:51.871Z,12.10
2018-04-28T03:46:51.862Z,12.40
2018-04-28T03:47:51.862Z,11.30
2018-04-28T03:48:51.856Z,12.10
2018-04-28T03:49:51.847Z,11.70
2018-04-28T03:50:51.843Z,12.30
2018-04-28T03:51:51.838Z,12.00
2018-04-28T03:52:51.832Z,12.20
2018-04-28T03:53:51.830Z,11.70
2018-04-28T03:54:51.823Z,12.00
2018-04-28T03:55:51.816Z,11.60
2018-04-28T03:56:51.811Z,11.60
2018-04-28T03:57:51.810Z,12.00
2018-04-28T03:58:51.803Z,12.60
2018-04-28T03:59:51.798Z,12.20
2018-04-28T04:00:51.791Z,12.00
2018-04-28T04:01:51.785Z,11.90
2018-04-28T04:02:51.777Z,12.30
2018-04-28T04:03:51.775Z,12.20
2018-04-28T04:04:51.771Z,12.50
2018-04-28T04:05:51.765Z,11.20
2018-04-28T04:06:51.759Z,12.00
2018-04-28T04:07:51.760Z,13.10
2018-04-28T04:08:51.750Z,11.70
2018-04-28T04:09:51.745Z,11.40
2018-04-28T04:10:51.743Z,12.00
2018-04-28T04:11:51.735Z,12.00
2018-04-28T04:12:51.728Z,11.60
2018-04-28T04:13:51.728Z,11.90
2018-04-28T04:14:51.716Z,12.00
2018-04-28T04:15:51.713Z,11.70
2018-04-28T04:16:51.709Z,12.20
2018-04-28T04:17:51.703Z,11.90
2018-04-28T04:18:51.697Z,11.70
2018-04-28T04:19:51.692Z,11.60
2018-04-28T04:20:51.690Z,11.40
2018-04-28T04:21:51.683Z,10.80
2018-04-28T04:22:51.674Z,11.60
2018-04-28T04:23:51.675Z,11.80
2018-04-28T04:24:51.669Z,11.70
2018-04-28T04:25:51.666Z,11.60
2018-04-28T04:26:51.657Z,11.70
2018-04-28T04:27:51.651Z,11.90
2018-04-28T04:28:51.646Z,11.90
2018-04-28T04:29:51.642Z,11.80
2018-04-28T04:30:51.640Z,12.10
2018-04-28T04:31:51.703Z,12.10
2018-04-28T04:32:51.628Z,12.50
2018-04-28T04:33:51.621Z,12.80
2018-04-28T04:34:51.618Z,12.90
2018-04-28T04:35:51.614Z,12.70
2018-04-28T04:36:51.606Z,11.70
2018-04-28T04:37:51.602Z,11.30
2018-04-28T04:38:51.596Z,11.70
2018-04-28T04:39:51.602Z,11.80
2018-04-28T04:40:51.587Z,11.50
2018-04-28T04:41:51.582Z,11.30
2018-04-28T04:42:51.576Z,11.40
2018-04-28T04:43:51.577Z,11.50
2018-04-28T04:44:51.569Z,10.90
2018-04-28T04:45:51.557Z,10.50
2018-04-28T04:46:51.555Z,10.60
2018-04-28T04:47:51.553Z,10.20
2018-04-28T04:48:51.548Z,10.60
2018-04-28T04:49:51.545Z,10.60
2018-04-28T04:50:51.536Z,10.90
2018-04-28T04:51:51.532Z,10.50
2018-04-28T04:52:51.530Z,10.50
2018-04-28T04:53:51.530Z,10.20
2018-04-28T04:54:51.518Z,10.00
2018-04-28T04:55:51.515Z,10.60
2018-04-28T04:56:51.509Z,10.00
2018-04-28T04:57:51.510Z,9.90
2018-04-28T04:58:51.503Z,10.40
2018-04-28T04:59:51.496Z,10.30
2018-04-28T05:00:51.497Z,10.60
2018-04-28T05:01:51.494Z,9.50
2018-04-28T05:02:51.485Z,9.50
2018-04-28T05:03:51.483Z,9.80
2018-04-28T05:04:51.478Z,9.30
2018-04-28T05:05:51.478Z,9.40
2018-04-28T05:06:51.471Z,9.90
2018-04-28T05:07:51.468Z,8.80
2018-04-28T05:08:51.466Z,9.30
2018-04-28T05:09:51.460Z,9.00
2018-04-28T05:10:51.458Z,9.20
2018-04-28T05:11:51.455Z,9.10
2018-04-28T05:12:51.450Z,8.80
2018-04-28T05:13:51.449Z,8.80
2018-04-28T05:14:51.443Z,9.00
2018-04-28T05:15:51.442Z,9.10
2018-04-28T05:16:51.443Z,8.80
2018-04-28T05:17:51.437Z,8.80
2018-04-28T05:18:51.434Z,8.80
2018-04-28T05:19:51.435Z,8.40
2018-04-28T05:20:51.429Z,9.20
2018-04-28T05:21:51.424Z,8.50
2018-04-28T05:22:51.428Z,8.60
2018-04-28T05:23:51.422Z,8.90
2018-04-28T05:24:51.418Z,8.60
2018-04-28T05:25:51.420Z,8.60
2018-04-28T05:26:51.417Z,8.80
2018-04-28T05:27:51.413Z,8.60
2018-04-28T05:28:51.414Z,8.30
2018-04-28T05:29:51.413Z,8.60
2018-04-28T05:30:51.411Z,8.30
2018-04-28T05:31:51.407Z,7.90
2018-04-28T05:32:51.407Z,8.50
2018-04-28T05:33:51.407Z,8.70
2018-04-28T05:34:51.412Z,8.40
2018-04-28T05:35:51.413Z,8.20
2018-04-28T05:36:51.402Z,9.10
2018-04-28T05:37:51.402Z,9.20
2018-04-28T05:38:51.402Z,10.10
2018-04-28T05:39:51.432Z,9.00
2018-04-28T05:40:51.399Z,9.10
2018-04-28T05:41:51.419Z,9.70
2018-04-28T05:42:51.410Z,8.80
2018-04-28T05:43:51.399Z,8.80
2018-04-28T05:44:51.396Z,9.10
2018-04-28T05:45:51.392Z,8.90
2018-04-28T05:46:51.393Z,9.20
2018-04-28T05:47:51.395Z,8.50
2018-04-28T05:48:51.394Z,9.00
2018-04-28T05:49:51.395Z,9.30
2018-04-28T05:50:51.391Z,8.40
2018-04-28T05:51:51.390Z,8.30
2018-04-28T05:52:51.388Z,8.50
2018-04-28T05:53:51.385Z,8.50
2018-04-28T05:54:51.387Z,8.40
2018-04-28T05:55:51.390Z,8.50
2018-04-28T05:56:51.391Z,7.90
2018-04-28T05:57:51.526Z,8.80
2018-04-28T05:58:51.386Z,8.80
2018-04-28T05:59:51.385Z,7.50
2018-04-28T06:00:51.383Z,8.00
2018-04-28T06:01:51.392Z,8.10
2018-04-28T06:02:51.394Z,8.50
2018-04-28T06:03:51.385Z,7.70
2018-04-28T06:04:51.391Z,7.80
2018-04-28T06:05:51.390Z,7.40
2018-04-28T06:06:51.386Z,7.70
2018-04-28T06:07:51.378Z,7.50
2018-04-28T06:08:51.382Z,7.30
2018-04-28T06:09:51.390Z,7.50
2018-04-28T06:10:51.383Z,7.30
2018-04-28T06:11:51.383Z,8.40
2018-04-28T06:12:51.383Z,7.20
2018-04-28T06:13:51.383Z,7.00
2018-04-28T06:14:51.383Z,7.50
2018-04-28T06:15:51.383Z,6.30
2018-04-28T06:16:51.383Z,6.60
2018-04-28T06:17:51.390Z,6.20
2018-04-28T06:18:51.384Z,6.30
2018-04-28T06:19:51.388Z,6.50
2018-04-28T06:20:51.384Z,6.40
2018-04-28T06:21:51.386Z,6.00
2018-04-28T06:22:51.390Z,6.90
2018-04-28T06:23:51.386Z,6.40
2018-04-28T06:24:51.387Z,6.70
2018-04-28T06:25:51.468Z,6.60
2018-04-28T06:26:51.387Z,6.10
2018-04-28T06:27:51.387Z,6.40
2018-04-28T06:28:51.390Z,6.10
2018-04-28T06:29:51.390Z,6.40
2018-04-28T06:30:51.391Z,6.20
2018-04-28T06:31:51.393Z,6.00
2018-04-28T06:32:51.391Z,6.00
2018-04-28T06:33:51.400Z,5.90
2018-04-28T06:34:51.390Z,5.80
2018-04-28T06:35:51.426Z,5.80
2018-04-28T06:36:51.396Z,5.90
2018-04-28T06:37:51.398Z,5.60
2018-04-28T06:38:51.395Z,5.30
2018-04-28T06:39:51.397Z,5.80
2018-04-28T06:40:51.397Z,5.60
2018-04-28T06:41:51.401Z,5.60
2018-04-28T06:42:51.398Z,5.30
2018-04-28T06:43:51.397Z,5.70
2018-04-28T06:44:51.407Z,5.30
2018-04-28T06:45:51.414Z,5.40
2018-04-28T06:46:51.404Z,5.30
2018-04-28T06:47:51.405Z,4.90
2018-04-28T06:48:51.403Z,5.10
2018-04-28T06:49:51.407Z,5.10
2018-04-28T06:50:51.407Z,5.00
2018-04-28T06:51:51.413Z,4.90
2018-04-28T06:52:51.414Z,5.30
2018-04-28T06:53:51.417Z,5.20
2018-04-28T06:54:51.413Z,5.00
2018-04-28T06:55:51.417Z,5.00
2018-04-28T06:56:51.419Z,4.90
2018-04-28T06:57:51.419Z,5.20
2018-04-28T06:58:51.422Z,5.10
2018-04-28T06:59:51.429Z,5.00
2018-04-28T07:00:51.428Z,4.90
2018-04-28T07:01:51.428Z,4.80
2018-04-28T07:02:51.432Z,4.90
2018-04-28T07:03:51.435Z,5.20
2018-04-28T07:04:51.437Z,5.10
2018-04-28T07:05:51.442Z,5.00
2018-04-28T07:06:51.444Z,5.20
2018-04-28T07:07:51.451Z,5.00
2018-04-28T07:08:51.453Z,5.00
2018-04-28T07:09:51.513Z,5.10
2018-04-28T07:10:51.538Z,4.90
2018-04-28T07:11:51.469Z,5.00
2018-04-28T07:12:51.512Z,4.90
2018-04-28T07:13:51.472Z,4.70
2018-04-28T07:14:51.477Z,4.90
2018-04-28T07:15:51.483Z,5.00
2018-04-28T07:16:51.486Z,4.90
2018-04-28T07:17:51.485Z,4.90
2018-04-28T07:18:51.493Z,5.30
2018-04-28T07:19:51.499Z,5.20
2018-04-28T07:20:51.504Z,5.20
2018-04-28T07:21:51.511Z,5.30
2018-04-28T07:22:51.529Z,4.90
2018-04-28T07:23:51.515Z,5.20
2018-04-28T07:24:51.522Z,5.40
2018-04-28T07:25:51.630Z,5.10
2018-04-28T07:26:51.536Z,5.20
2018-04-28T07:27:51.532Z,5.50
2018-04-28T07:28:51.540Z,5.20
2018-04-28T07:29:51.550Z,5.40
2018-04-28T07:30:51.605Z,5.30
2018-04-28T07:31:51.553Z,5.80
2018-04-28T07:32:51.558Z,6.60
2018-04-28T07:33:51.562Z,6.40
2018-04-28T07:34:51.569Z,6.40
2018-04-28T07:35:51.573Z,6.20
2018-04-28T07:36:51.573Z,5.90
2018-04-28T07:37:51.581Z,5.70
2018-04-28T07:38:51.586Z,5.80
2018-04-28T07:39:51.592Z,5.80
2018-04-28T07:40:51.595Z,5.30
2018-04-28T07:41:51.601Z,4.80
2018-04-28T07:42:51.608Z,5.50
2018-04-28T07:43:51.609Z,5.30
2018-04-28T07:44:51.614Z,5.20
2018-04-28T07:45:51.621Z,5.30
2018-04-28T07:46:51.625Z,5.30
2018-04-28T07:47:51.630Z,5.20
2018-04-28T07:48:51.636Z,5.40
2018-04-28T07:49:51.640Z,5.00
2018-04-28T07:50:51.712Z,5.20
2018-04-28T07:51:51.652Z,4.90
2018-04-28T07:52:51.656Z,5.20
2018-04-28T07:53:51.662Z,5.30
2018-04-28T07:54:51.667Z,5.40
2018-04-28T07:55:51.675Z,5.50
2018-04-28T07:56:51.682Z,5.20
2018-04-28T07:57:51.689Z,5.50
2018-04-28T07:58:51.695Z,5.20
2018-04-28T07:59:51.697Z,5.40
2018-04-28T08:00:51.705Z,5.20
2018-04-28T08:01:51.712Z,5.00
2018-04-28T08:02:51.726Z,5.20
2018-04-28T08:03:51.722Z,5.10
2018-04-28T08:04:51.729Z,5.20
2018-04-28T08:05:51.736Z,5.00
2018-04-28T08:06:51.741Z,5.00
2018-04-28T08:07:51.750Z,4.80
2018-04-28T08:08:51.771Z,5.00
2018-04-28T08:09:51.763Z,4.90
2018-04-28T08:10:51.770Z,5.10
2018-04-28T08:11:51.778Z,4.90
2018-04-28T08:12:51.783Z,5.20
2018-04-28T08:13:51.791Z,5.20
2018-04-28T08:14:51.797Z,5.00
2018-04-28T08:15:51.805Z,4.90
2018-04-28T08:16:51.826Z,5.30
2018-04-28T08:17:51.833Z,5.10
2018-04-28T08:18:51.830Z,5.00
2018-04-28T08:19:51.841Z,5.20
2018-04-28T08:20:51.844Z,4.80
2018-04-28T08:21:51.849Z,4.70
2018-04-28T08:22:51.858Z,5.10
2018-04-28T08:23:51.862Z,5.00
2018-04-28T08:24:51.870Z,4.70
2018-04-28T08:25:51.876Z,4.80
2018-04-28T08:26:51.891Z,5.20
2018-04-28T08:27:51.894Z,4.80
2018-04-28T08:28:51.907Z,4.60
2018-04-28T08:29:51.908Z,5.00
2018-04-28T08:30:51.915Z,4.80
2018-04-28T08:31:51.930Z,4.70
2018-04-28T08:32:51.931Z,4.50
2018-04-28T08:33:51.938Z,4.50
2018-04-28T08:34:51.949Z,4.20
2018-04-28T08:35:51.950Z,4.40
2018-04-28T08:36:52.027Z,4.50
2018-04-28T08:37:52.182Z,4.10
2018-04-28T08:38:51.979Z,4.10
2018-04-28T08:39:51.983Z,4.30
2018-04-28T08:40:51.988Z,3.80
2018-04-28T08:41:52.000Z,4.30
2018-04-28T08:42:52.006Z,4.40
2018-04-28T08:43:52.013Z,4.30
2018-04-28T08:44:52.018Z,4.30
2018-04-28T08:45:52.026Z,4.20
2018-04-28T08:46:52.033Z,4.30
2018-04-28T08:47:52.046Z,4.00
2018-04-28T08:48:52.043Z,4.00
2018-04-28T08:49:52.052Z,4.20
2018-04-28T08:50:52.059Z,4.20
2018-04-28T08:51:52.064Z,4.20
2018-04-28T08:52:52.072Z,3.90
2018-04-28T08:53:52.076Z,4.20
2018-04-28T08:54:52.080Z,3.90
2018-04-28T08:55:52.088Z,4.00
2018-04-28T08:56:52.097Z,4.00
2018-04-28T08:57:52.103Z,3.90
2018-04-28T08:58:52.106Z,3.50
2018-04-28T08:59:52.113Z,3.80
2018-04-28T09:00:52.118Z,3.80
2018-04-28T09:01:52.124Z,3.70
2018-04-28T09:02:52.126Z,3.50
2018-04-28T09:03:52.143Z,3.70
2018-04-28T09:04:52.138Z,3.60
2018-04-28T09:05:52.145Z,3.90
2018-04-28T09:06:52.147Z,3.90
2018-04-28T09:07:52.154Z,3.90
2018-04-28T09:08:52.157Z,4.00
2018-04-28T09:09:52.166Z,3.80
2018-04-28T09:10:52.166Z,3.60
2018-04-28T09:11:52.172Z,3.30
2018-04-28T09:12:52.182Z,3.70
2018-04-28T09:13:52.180Z,3.70
2018-04-28T09:14:52.186Z,3.70
2018-04-28T09:15:52.187Z,3.40
2018-04-28T09:16:52.192Z,3.30
2018-04-28T09:17:52.199Z,3.60
2018-04-28T09:18:52.204Z,3.50
2018-04-28T09:19:52.205Z,3.50
2018-04-28T09:20:52.208Z,3.50
2018-04-28T09:21:52.215Z,3.30
2018-04-28T09:22:52.217Z,3.70
2018-04-28T09:23:52.221Z,3.50
2018-04-28T09:24:52.225Z,3.70
2018-04-28T09:25:52.231Z,3.70
2018-04-28T09:26:52.231Z,3.60
2018-04-28T09:27:52.241Z,3.80
2018-04-28T09:28:52.240Z,3.90
2018-04-28T09:29:52.246Z,3.70
2018-04-28T09:30:52.245Z,3.80
2018-04-28T09:31:52.247Z,3.80
2018-04-28T09:32:52.280Z,3.90
2018-04-28T09:33:52.257Z,4.20
2018-04-28T09:34:52.262Z,4.00
2018-04-28T09:35:52.281Z,4.20
2018-04-28T09:36:52.268Z,4.30
2018-04-28T09:37:52.291Z,4.50
2018-04-28T09:38:52.293Z,4.50
2018-04-28T09:39:52.280Z,4.30
2018-04-28T09:40:52.285Z,4.30
2018-04-28T09:41:52.289Z,4.20
2018-04-28T09:42:52.301Z,4.30
2018-04-28T09:43:52.296Z,4.50
2018-04-28T09:44:52.310Z,4.30
2018-04-28T09:45:52.298Z,4.30
2018-04-28T09:46:52.324Z,4.00
2018-04-28T09:47:52.324Z,4.10
2018-04-28T09:48:52.342Z,3.90
2018-04-28T09:49:52.361Z,3.80
2018-04-28T09:50:52.313Z,3.90
2018-04-28T09:51:52.317Z,4.20
2018-04-28T09:52:52.319Z,4.40
2018-04-28T09:53:52.324Z,4.80
2018-04-28T09:54:52.333Z,4.60
2018-04-28T09:55:52.327Z,4.20
2018-04-28T09:56:52.352Z,4.40
2018-04-28T09:57:52.331Z,4.20
2018-04-28T09:58:52.347Z,4.60
2018-04-28T09:59:52.356Z,4.10
2018-04-28T10:00:52.342Z,4.10
2018-04-28T10:01:52.347Z,4.20
2018-04-28T10:02:52.351Z,3.90
2018-04-28T10:03:52.353Z,4.40
2018-04-28T10:04:52.352Z,4.20
2018-04-28T10:05:52.448Z,3.90
2018-04-28T10:06:52.419Z,4.50
2018-04-28T10:07:52.368Z,4.70
2018-04-28T10:08:52.365Z,4.20
2018-04-28T10:09:52.379Z,4.30
2018-04-28T10:10:52.369Z,4.00
2018-04-28T10:11:52.374Z,4.10
2018-04-28T10:12:52.378Z,3.80
2018-04-28T10:13:52.380Z,4.00
2018-04-28T10:14:52.391Z,3.60
2018-04-28T10:15:52.387Z,3.80
2018-04-28T10:16:52.392Z,4.10
2018-04-28T10:17:52.401Z,4.00
2018-04-28T10:18:52.397Z,4.20
2018-04-28T10:19:52.397Z,4.20
2018-04-28T10:20:52.404Z,3.90
2018-04-28T10:21:52.405Z,3.60
2018-04-28T10:22:52.406Z,3.90
2018-04-28T10:23:52.413Z,4.30
2018-04-28T10:24:52.421Z,4.30
2018-04-28T10:25:52.418Z,4.30
2018-04-28T10:26:52.415Z,4.50
2018-04-28T10:27:52.425Z,4.50
2018-04-28T10:28:52.425Z,4.40
2018-04-28T10:29:52.428Z,4.50
2018-04-28T10:30:52.434Z,4.80
2018-04-28T10:31:52.432Z,4.50
2018-04-28T10:32:52.434Z,4.90
2018-04-28T10:33:52.439Z,4.20
2018-04-28T10:34:52.448Z,4.30
2018-04-28T10:35:52.446Z,4.60
2018-04-28T10:36:52.449Z,4.40
2018-04-28T10:37:52.457Z,4.50
2018-04-28T10:38:52.454Z,4.50
2018-04-28T10:39:52.458Z,4.70
2018-04-28T10:40:52.461Z,4.60
2018-04-28T10:41:52.467Z,4.70
2018-04-28T10:42:52.468Z,4.50
2018-04-28T10:43:52.474Z,4.40
2018-04-28T10:44:52.473Z,4.50
2018-04-28T10:45:52.476Z,4.50
2018-04-28T10:46:52.479Z,4.30
2018-04-28T10:47:52.488Z,4.50
2018-04-28T10:48:52.485Z,4.60
2018-04-28T10:49:52.495Z,4.40
2018-04-28T10:50:52.493Z,4.50
2018-04-28T10:51:52.505Z,4.10
2018-04-28T10:52:52.497Z,4.20
2018-04-28T10:53:52.573Z,3.80
2018-04-28T10:54:52.503Z,3.70
2018-04-28T10:55:52.505Z,3.90
2018-04-28T10:56:52.511Z,4.00
2018-04-28T10:57:52.513Z,3.80
2018-04-28T10:58:52.515Z,4.20
2018-04-28T10:59:52.525Z,3.80
2018-04-28T11:00:52.521Z,4.20
2018-04-28T11:01:52.545Z,4.10
2018-04-28T11:02:52.528Z,3.90
2018-04-28T11:03:52.529Z,4.20
2018-04-28T11:04:52.559Z,3.80
2018-04-28T11:05:52.537Z,3.50
2018-04-28T11:06:52.541Z,3.30
2018-04-28T11:07:52.545Z,3.60
2018-04-28T11:08:52.547Z,3.70
2018-04-28T11:09:52.552Z,3.50
2018-04-28T11:10:52.554Z,3.30
2018-04-28T11:11:52.555Z,3.80
2018-04-28T11:12:52.559Z,3.80
2018-04-28T11:13:52.563Z,4.20
2018-04-28T11:14:52.570Z,3.80
2018-04-28T11:15:52.573Z,3.90
2018-04-28T11:16:52.572Z,3.50
2018-04-28T11:17:52.575Z,3.90
2018-04-28T11:18:52.577Z,3.60
2018-04-28T11:19:52.591Z,3.80
2018-04-28T11:20:52.589Z,4.00
2018-04-28T11:21:52.588Z,3.80
2018-04-28T11:22:52.590Z,4.00
2018-04-28T11:23:52.606Z,4.10
2018-04-28T11:24:52.594Z,3.80
2018-04-28T11:25:52.679Z,4.10
2018-04-28T11:26:52.603Z,4.20
2018-04-28T11:27:52.607Z,4.40
2018-04-28T11:28:52.617Z,3.90
2018-04-28T11:29:52.612Z,3.40
2018-04-28T11:30:52.641Z,3.30
2018-04-28T11:31:52.620Z,3.30
2018-04-28T11:32:52.659Z,3.30
2018-04-28T11:33:52.628Z,3.60
2018-04-28T11:34:52.629Z,3.20
2018-04-28T11:35:52.630Z,3.20
2018-04-28T11:36:52.633Z,3.20
2018-04-28T11:37:52.638Z,3.20
2018-04-28T11:38:52.639Z,3.20
2018-04-28T11:39:52.646Z,3.00
2018-04-28T11:40:52.653Z,3.10
2018-04-28T11:41:52.651Z,3.10
2018-04-28T11:42:52.653Z,2.90
2018-04-28T11:43:52.655Z,3.00
2018-04-28T11:44:52.660Z,3.00
2018-04-28T11:45:52.667Z,2.60
2018-04-28T11:46:52.667Z,2.70
2018-04-28T11:47:52.669Z,2.80
2018-04-28T11:48:52.686Z,2.70
2018-04-28T11:49:52.676Z,2.90
2018-04-28T11:50:52.683Z,2.90
2018-04-28T11:51:52.683Z,2.70
2018-04-28T11:52:52.686Z,2.80
2018-04-28T11:53:52.690Z,3.00
2018-04-28T11:54:52.692Z,2.80
2018-04-28T11:55:52.694Z,2.80
2018-04-28T11:56:52.700Z,2.90
2018-04-28T11:57:52.706Z,3.10
2018-04-28T11:58:52.735Z,2.70
2018-04-28T11:59:52.709Z,3.10
2018-04-28T12:00:52.715Z,3.00
2018-04-28T12:01:52.715Z,3.10
2018-04-28T12:02:52.720Z,3.10
2018-04-28T12:03:52.721Z,2.90
2018-04-28T12:04:52.727Z,3.30
2018-04-28T12:05:52.777Z,3.20
2018-04-28T12:06:52.731Z,3.10
2018-04-28T12:07:52.736Z,2.80
2018-04-28T12:08:52.747Z,3.20
2018-04-28T12:09:52.745Z,3.30
2018-04-28T12:10:52.753Z,3.00
2018-04-28T12:11:52.749Z,3.10
2018-04-28T12:12:52.750Z,3.10
2018-04-28T12:13:52.754Z,3.40
2018-04-28T12:14:52.759Z,3.20
2018-04-28T12:15:52.767Z,3.00
2018-04-28T12:16:52.767Z,3.00
2018-04-28T12:17:52.771Z,2.90
2018-04-28T12:18:52.774Z,3.00
2018-04-28T12:19:52.778Z,2.70
2018-04-28T12:20:52.780Z,3.10
2018-04-28T12:21:52.784Z,3.10
2018-04-28T12:22:52.791Z,3.20
2018-04-28T12:23:52.792Z,2.90
2018-04-28T12:24:52.796Z,2.80
2018-04-28T12:25:52.803Z,2.90
2018-04-28T12:26:52.802Z,2.70
2018-04-28T12:27:52.807Z,3.00
2018-04-28T12:28:52.810Z,2.40
2018-04-28T12:29:52.869Z,2.50
2018-04-28T12:30:52.813Z,2.20
2018-04-28T12:31:52.820Z,2.30
2018-04-28T12:32:52.823Z,2.00
2018-04-28T12:33:52.831Z,2.00
2018-04-28T12:34:52.832Z,2.20
2018-04-28T12:35:52.896Z,2.50
2018-04-28T12:36:52.841Z,2.30
2018-04-28T12:37:52.846Z,2.30
2018-04-28T12:38:52.847Z,2.20
2018-04-28T12:39:52.852Z,2.10
2018-04-28T12:40:52.857Z,2.00
2018-04-28T12:41:52.859Z,2.30
2018-04-28T12:42:52.869Z,2.00
2018-04-28T12:43:52.869Z,2.30
2018-04-28T12:44:52.872Z,2.20
2018-04-28T12:45:52.883Z,2.10
2018-04-28T12:46:52.881Z,2.00
2018-04-28T12:47:52.886Z,1.90
2018-04-28T12:48:52.896Z,2.30
2018-04-28T12:49:52.893Z,2.00
2018-04-28T12:50:52.964Z,2.10
2018-04-28T12:51:52.903Z,2.40
2018-04-28T12:52:52.906Z,2.10
2018-04-28T12:53:52.910Z,2.30
2018-04-28T12:54:52.913Z,2.20
2018-04-28T12:55:52.919Z,2.50
2018-04-28T12:56:52.920Z,2.30
2018-04-28T12:57:52.924Z,2.40
2018-04-28T12:58:52.931Z,2.20
2018-04-28T12:59:52.936Z,2.00
2018-04-28T13:00:52.936Z,2.20
2018-04-28T13:01:52.939Z,2.00
2018-04-28T13:02:52.944Z,2.10
2018-04-28T13:03:52.952Z,2.00
2018-04-28T13:04:52.957Z,2.00
2018-04-28T13:05:52.960Z,1.90
2018-04-28T13:06:52.963Z,2.10
2018-04-28T13:07:52.968Z,2.00
2018-04-28T13:08:52.968Z,2.00
2018-04-28T13:09:52.975Z,2.20
2018-04-28T13:10:52.980Z,1.80
2018-04-28T13:11:52.985Z,1.60
2018-04-28T13:12:52.987Z,1.70
2018-04-28T13:13:52.993Z,2.00
2018-04-28T13:14:52.998Z,1.90